La Grange, TX (78945)

6:22 PM CST on March 01, 2015 (GMT -0600)
Horton Street, La Grange, Tx | Change Station
CLOSE
Current Station
Personal Weather Station
Location: La Grange, TX
Elevation: 344 ft
Nearby Weather Stations

Elev 344 ft 29.92 °N, 96.87 °W | Updated 7 seconds ago

Fog
Fog
43.7 °F
Feels Like 42 °F
N
3.6
Wind Variable Wind from North
Gusts 4.9 mph

Today
High -- | Low -- °F
--% Chance of Precip.
Yesterday
High -- | Low -- °F
Precip. -- in
6:53 AM 6:26 PM
Waxing Gibbous, 88% visible
Pressure 30.23 in
Visibility 4.0 miles
Clouds Overcast 400 ft
Windchill 42 °F
Dew Point 43 °F
Humidity 98%
Rainfall 0.09 in
Snow Depth Not available.
UV 0.0 out of 12
Pollen 8.10 out of 12
Air Quality Not available.
Flu Activity Not available.
METAR K3T5 020015Z AUTO 01006KT 4SM -RA OVC004 07/07 A3023 RMK AO2 T00700066

More Conditions Fewer Conditions

Pressure 30.23 in
Visibility 4.0 miles
Clouds Overcast 400 ft
Windchill 42 °F
Dew Point 43 °F
Humidity 98%
Rainfall 0.09 in
Snow Depth Not available.
UV 0.0 out of 12
Pollen 8.10 out of 12
Air Quality Not available.
Flu Activity Not available.
METAR K3T5 020015Z AUTO 01006KT 4SM -RA OVC004 07/07 A3023 RMK AO2 T00700066

More Conditions Fewer Conditions

Nowcast | as of 4:08 PM CST on March 1, 2015

Areas of light rain and drizzle continue to move north this afternoon and impact locations along and east of the i35 corridor. The thicker drizzle and rain patches may result in brief visibility reductions down to a couple miles.

×

10-Day Weather Forecast

Almanac

Astronomy

Mar. 01, 2015 Rise Set
Actual Time
Civil Twilight
Nautical Twilight
Astronomical Twilight
Moon
Length of Visible Light
Length of Day
Tomorrow will be .
, % of the Moon is Illuminated

Today's Extremes

State Highs State Lows

Community

WunderPhotos

Upload Photos

1,801,647 photos uploaded!

WunderBlogs® & News

Nearby

Air Quality

  Air Quality AQ Index Pollutant
Not available.

Snow Depth

Station Depth Elevation

Earthquake Activity

City Distance Mag. Time & Date
Minimum magnitude displayed is 2.5.

Coastal Water Temperatures

Place Temperature

Nearby Weather Stations